createdAt,value
2022-10-30T00:01:34.611Z,100.00
2022-10-30T00:04:01.049Z,100.00
2022-10-30T00:06:27.448Z,100.00
2022-10-30T00:08:53.822Z,100.00
2022-10-30T00:11:20.268Z,99.70
2022-10-30T00:13:46.727Z,99.25
2022-10-30T00:16:13.238Z,99.53
2022-10-30T00:18:41.993Z,99.12
2022-10-30T00:21:11.721Z,99.85
2022-10-30T00:23:39.023Z,99.49
2022-10-30T00:26:07.127Z,99.80
2022-10-30T00:28:33.951Z,99.96
2022-10-30T00:31:05.069Z,99.56
2022-10-30T00:33:32.340Z,99.90
2022-10-30T00:35:59.237Z,100.00
2022-10-30T00:38:25.679Z,99.92
2022-10-30T00:40:52.221Z,99.83
2022-10-30T00:43:37.408Z,99.94
2022-10-30T00:46:22.056Z,100.00
2022-10-30T00:48:54.551Z,99.75
2022-10-30T00:51:21.533Z,100.00
2022-10-30T00:53:48.873Z,100.00
2022-10-30T00:56:18.752Z,100.00
2022-10-30T00:58:56.690Z,100.00
2022-10-30T01:01:25.987Z,100.00
2022-10-30T01:03:57.893Z,99.01
2022-10-30T01:06:25.140Z,98.94
2022-10-30T01:08:57.121Z,99.37
2022-10-30T01:11:26.534Z,100.00
2022-10-30T01:13:58.669Z,99.98
2022-10-30T01:16:34.227Z,100.00
2022-10-30T01:19:10.537Z,99.59
2022-10-30T01:21:55.827Z,100.00
2022-10-30T01:24:37.001Z,100.00
2022-10-30T01:27:18.625Z,100.00
2022-10-30T01:30:20.293Z,100.00
2022-10-30T01:33:05.056Z,100.00
2022-10-30T01:36:06.950Z,100.00
2022-10-30T01:38:42.282Z,100.00
2022-10-30T01:41:08.743Z,100.00
2022-10-30T01:43:36.626Z,100.00
2022-10-30T01:46:38.615Z,100.00
2022-10-30T01:49:14.095Z,100.00
2022-10-30T01:52:14.651Z,100.00
2022-10-30T01:54:59.528Z,100.00
2022-10-30T01:57:56.907Z,100.00
2022-10-30T02:00:23.936Z,100.00
2022-10-30T02:02:51.778Z,100.00
2022-10-30T02:05:43.731Z,99.98
2022-10-30T02:08:10.147Z,100.00
2022-10-30T02:10:37.945Z,99.90
2022-10-30T02:13:04.931Z,100.00
2022-10-30T02:15:32.268Z,100.00
2022-10-30T02:17:58.972Z,100.00
2022-10-30T02:20:26.274Z,100.00
2022-10-30T02:22:56.245Z,100.00
2022-10-30T02:25:25.528Z,100.00
2022-10-30T02:27:51.939Z,100.00
2022-10-30T02:30:18.392Z,100.00
2022-10-30T02:33:00.314Z,100.00
2022-10-30T02:35:27.034Z,100.00
2022-10-30T02:37:53.453Z,100.00
2022-10-30T02:40:19.886Z,100.00
2022-10-30T02:42:52.549Z,100.00
2022-10-30T02:45:19.079Z,100.00
2022-10-30T02:47:45.536Z,100.00
2022-10-30T02:50:11.985Z,100.00
2022-10-30T02:52:38.449Z,100.00
2022-10-30T02:55:05.358Z,100.00
2022-10-30T02:57:32.036Z,100.00
2022-10-30T02:59:58.435Z,100.00
2022-10-30T03:02:24.902Z,100.00
2022-10-30T03:04:51.431Z,100.00
2022-10-30T03:07:19.916Z,100.00
2022-10-30T03:09:46.400Z,100.00
2022-10-30T03:12:12.805Z,100.00
2022-10-30T03:14:39.205Z,100.00
2022-10-30T03:17:05.915Z,100.00
2022-10-30T03:19:32.341Z,100.00
2022-10-30T03:21:58.860Z,100.00
2022-10-30T03:24:25.239Z,100.00
2022-10-30T03:26:51.689Z,100.00
2022-10-30T03:29:18.148Z,100.00
2022-10-30T03:31:44.576Z,100.00
2022-10-30T03:34:11.306Z,100.00
2022-10-30T03:36:37.713Z,100.00
2022-10-30T03:39:04.896Z,100.00
2022-10-30T03:41:31.293Z,100.00
2022-10-30T03:43:57.719Z,100.00
2022-10-30T03:46:24.127Z,100.00
2022-10-30T03:48:51.053Z,100.00
2022-10-30T03:51:17.753Z,100.00
2022-10-30T03:53:44.222Z,100.00
2022-10-30T03:56:10.737Z,100.00
2022-10-30T03:58:38.251Z,100.00
2022-10-30T04:01:06.559Z,100.00
2022-10-30T04:03:33.349Z,100.00
2022-10-30T04:06:00.073Z,100.00
2022-10-30T04:08:26.580Z,100.00
2022-10-30T04:10:53.102Z,100.00
2022-10-30T04:13:22.441Z,100.00
2022-10-30T04:15:57.189Z,100.00
2022-10-30T04:18:24.954Z,100.00
2022-10-30T04:20:51.462Z,100.00
2022-10-30T04:23:19.871Z,100.00
2022-10-30T04:25:46.461Z,100.00
2022-10-30T04:28:13.526Z,100.00
2022-10-30T04:30:40.531Z,100.00
2022-10-30T04:33:10.411Z,100.00
2022-10-30T04:35:37.374Z,100.00
2022-10-30T04:38:10.447Z,100.00
2022-10-30T04:40:39.235Z,100.00
2022-10-30T04:43:07.606Z,100.00
2022-10-30T04:45:34.509Z,100.00
2022-10-30T04:48:19.951Z,100.00
2022-10-30T04:50:46.416Z,100.00
2022-10-30T04:53:18.239Z,100.00
2022-10-30T04:55:45.277Z,100.00
2022-10-30T04:58:12.925Z,100.00
2022-10-30T05:00:39.479Z,100.00
2022-10-30T05:03:05.902Z,100.00
2022-10-30T05:05:32.585Z,100.00
2022-10-30T05:07:59.605Z,100.00
2022-10-30T05:10:26.289Z,100.00
2022-10-30T05:12:56.115Z,100.00
2022-10-30T05:15:22.591Z,100.00
2022-10-30T05:17:53.677Z,100.00
2022-10-30T05:20:20.375Z,99.89
2022-10-30T05:22:53.477Z,100.00
2022-10-30T05:25:19.882Z,100.00
2022-10-30T05:27:46.363Z,100.00
2022-10-30T05:30:12.925Z,100.00
2022-10-30T05:32:39.364Z,99.90
2022-10-30T05:35:05.959Z,99.85
2022-10-30T05:37:32.520Z,99.58
2022-10-30T05:39:58.966Z,100.00
2022-10-30T05:42:25.389Z,99.89
2022-10-30T05:45:07.071Z,98.94
2022-10-30T05:47:33.488Z,98.86
2022-10-30T05:49:59.900Z,99.81
2022-10-30T05:52:26.350Z,100.00
2022-10-30T05:54:52.759Z,100.00
2022-10-30T05:57:19.165Z,100.00
2022-10-30T05:59:45.603Z,100.00
2022-10-30T06:02:12.083Z,100.00
2022-10-30T06:04:38.545Z,100.00
2022-10-30T06:07:05.017Z,100.00
2022-10-30T06:09:31.438Z,100.00
2022-10-30T06:11:58.634Z,100.00
2022-10-30T06:14:28.144Z,100.00
2022-10-30T06:16:54.544Z,100.00
2022-10-30T06:19:20.953Z,100.00
2022-10-30T06:21:47.778Z,100.00
2022-10-30T06:24:14.336Z,100.00
2022-10-30T06:26:41.154Z,100.00
2022-10-30T06:29:07.974Z,100.00
2022-10-30T06:31:34.373Z,100.00
2022-10-30T06:34:00.831Z,100.00
2022-10-30T06:36:27.301Z,100.00
2022-10-30T06:38:53.783Z,100.00
2022-10-30T06:41:21.621Z,100.00
2022-10-30T06:43:49.792Z,100.00
2022-10-30T06:46:16.192Z,100.00
2022-10-30T06:48:42.629Z,100.00
2022-10-30T06:51:09.029Z,100.00
2022-10-30T06:53:35.441Z,100.00
2022-10-30T06:56:03.716Z,100.00
2022-10-30T06:58:30.351Z,100.00
2022-10-30T07:01:00.915Z,100.00
2022-10-30T07:03:27.395Z,100.00
2022-10-30T07:05:53.812Z,100.00
2022-10-30T07:08:20.258Z,100.00
2022-10-30T07:10:46.687Z,100.00
2022-10-30T07:13:13.092Z,100.00
2022-10-30T07:15:39.604Z,100.00
2022-10-30T07:18:06.161Z,100.00
2022-10-30T07:20:34.626Z,100.00
2022-10-30T07:23:01.702Z,100.00
2022-10-30T07:25:28.648Z,100.00
2022-10-30T07:27:56.415Z,100.00
2022-10-30T07:33:07.016Z,100.00
2022-10-30T07:35:35.545Z,100.00
2022-10-30T07:38:07.090Z,100.00
2022-10-30T07:40:34.112Z,99.36
2022-10-30T07:43:03.023Z,98.94
2022-10-30T07:45:31.451Z,98.62
2022-10-30T07:47:59.069Z,99.14
2022-10-30T07:50:25.743Z,98.59
2022-10-30T07:52:53.194Z,98.84
2022-10-30T07:55:20.625Z,98.53
2022-10-30T07:58:00.947Z,98.01
2022-10-30T08:00:28.691Z,97.93
2022-10-30T08:03:04.418Z,97.54
2022-10-30T08:05:30.824Z,97.13
2022-10-30T08:08:12.688Z,96.55
2022-10-30T08:10:39.134Z,96.78
2022-10-30T08:13:05.582Z,96.50
2022-10-30T08:15:32.920Z,96.30
2022-10-30T08:18:06.686Z,95.71
2022-10-30T08:20:33.140Z,95.18
2022-10-30T08:22:59.886Z,89.64
2022-10-30T08:25:30.379Z,90.72
2022-10-30T08:28:06.845Z,90.74
2022-10-30T08:30:35.418Z,91.04
2022-10-30T08:33:07.593Z,90.66
2022-10-30T08:38:05.637Z,89.81
2022-10-30T08:40:32.119Z,88.93
2022-10-30T08:43:02.206Z,88.64
2022-10-30T08:45:31.034Z,89.36
2022-10-30T08:48:03.318Z,89.33
2022-10-30T08:50:30.617Z,89.88
2022-10-30T08:53:01.104Z,90.04
2022-10-30T08:55:27.954Z,89.82
2022-10-30T08:57:54.338Z,89.63
2022-10-30T09:00:20.838Z,90.36
2022-10-30T09:02:47.343Z,89.25
2022-10-30T09:05:14.025Z,87.52
2022-10-30T09:07:46.080Z,86.13
2022-10-30T09:10:13.242Z,86.20
2022-10-30T09:12:39.885Z,85.87
2022-10-30T09:15:07.302Z,83.81
2022-10-30T09:17:36.828Z,82.88
2022-10-30T09:20:03.908Z,81.63
2022-10-30T09:22:30.314Z,80.63
2022-10-30T09:24:56.852Z,79.75
2022-10-30T09:27:23.283Z,79.79
2022-10-30T09:29:49.690Z,79.34
2022-10-30T09:32:16.094Z,77.61
2022-10-30T09:34:45.480Z,77.74
2022-10-30T09:37:11.923Z,76.31
2022-10-30T09:39:38.367Z,76.79
2022-10-30T09:42:07.771Z,77.39
2022-10-30T09:45:27.228Z,77.71
2022-10-30T09:48:15.556Z,79.00
2022-10-30T09:51:12.969Z,77.83
2022-10-30T09:54:00.390Z,76.37
2022-10-30T09:56:49.944Z,76.38
2022-10-30T09:59:38.205Z,77.38
2022-10-30T10:02:25.657Z,75.86
2022-10-30T10:04:58.396Z,75.95
2022-10-30T10:07:30.227Z,76.05
2022-10-30T10:10:03.265Z,75.78
2022-10-30T10:12:40.779Z,74.43
2022-10-30T10:15:37.870Z,72.99
2022-10-30T10:18:13.886Z,72.45
2022-10-30T10:20:44.059Z,73.11
2022-10-30T10:23:30.601Z,73.21
2022-10-30T10:26:00.610Z,71.36
2022-10-30T10:29:08.904Z,72.11
2022-10-30T10:32:01.637Z,71.40
2022-10-30T10:34:57.126Z,71.38
2022-10-30T10:37:37.054Z,70.85
2022-10-30T10:40:18.726Z,70.94
2022-10-30T10:43:05.194Z,69.70
2022-10-30T14:54:18.574Z,66.86
2022-10-30T14:56:50.388Z,67.63
2022-10-30T14:59:16.708Z,68.75
2022-10-30T15:01:46.296Z,68.79
2022-10-30T15:04:22.296Z,69.93
2022-10-30T15:07:07.547Z,71.19
2022-10-30T15:09:55.852Z,71.52
2022-10-30T15:12:25.261Z,70.45
2022-10-30T15:14:58.744Z,70.65
2022-10-30T15:17:25.108Z,72.42
2022-10-30T15:19:51.647Z,73.36
2022-10-30T15:22:24.938Z,73.87
2022-10-30T15:24:51.822Z,73.29
2022-10-30T15:27:21.628Z,72.79
2022-10-30T15:29:59.526Z,71.64
2022-10-30T15:32:26.360Z,69.26
2022-10-30T15:35:23.405Z,69.20
2022-10-30T15:37:57.853Z,71.65
2022-10-30T15:40:24.704Z,72.52
2022-10-30T15:42:52.879Z,72.00
2022-10-30T15:45:40.076Z,71.14
2022-10-30T15:48:31.322Z,70.55
2022-10-30T15:51:12.243Z,71.69
2022-10-30T15:53:57.934Z,73.11
2022-10-30T15:56:27.292Z,75.89
2022-10-30T15:59:05.755Z,77.28
2022-10-30T16:01:42.829Z,77.08
2022-10-30T16:04:20.883Z,75.92
2022-10-30T16:06:53.349Z,76.41
2022-10-30T16:09:20.232Z,77.98
2022-10-30T16:11:48.277Z,78.30
2022-10-30T16:14:18.736Z,79.45
2022-10-30T16:16:45.706Z,81.00
2022-10-30T16:19:26.366Z,80.18
2022-10-30T16:21:57.534Z,79.51
2022-10-30T16:24:31.095Z,81.13
2022-10-30T16:27:19.335Z,82.51
2022-10-30T16:29:51.967Z,82.72
2022-10-30T16:32:22.265Z,82.79
2022-10-30T16:34:50.331Z,82.83
2022-10-30T16:37:16.665Z,82.04
2022-10-30T16:39:43.825Z,82.57
2022-10-30T16:42:25.176Z,83.00
2022-10-30T16:45:14.101Z,83.62
2022-10-30T16:47:45.048Z,83.63
2022-10-30T16:50:15.461Z,83.83
2022-10-30T16:52:43.359Z,84.55
2022-10-30T16:55:18.904Z,84.79
2022-10-30T16:57:49.021Z,85.40
2022-10-30T17:00:32.741Z,85.65
2022-10-30T17:03:08.124Z,86.05
2022-10-30T17:05:40.731Z,85.69
2022-10-30T17:08:29.480Z,86.49
2022-10-30T17:11:18.686Z,86.31
2022-10-30T17:13:54.099Z,87.58
2022-10-30T17:16:32.139Z,87.17
2022-10-30T17:19:30.419Z,87.57
2022-10-30T17:22:00.051Z,87.43
2022-10-30T17:24:35.083Z,87.90
2022-10-30T17:27:05.391Z,89.19
2022-10-30T17:29:37.909Z,89.17
2022-10-30T17:32:06.716Z,88.95
2022-10-30T17:34:40.191Z,89.00
2022-10-30T17:37:06.575Z,89.63
2022-10-30T17:39:32.998Z,89.45
2022-10-30T17:41:59.366Z,91.05
2022-10-30T17:44:26.600Z,91.46
2022-10-30T17:46:54.520Z,90.35
2022-10-30T17:49:28.353Z,91.75
2022-10-30T17:51:54.786Z,91.10
2022-10-30T17:54:21.423Z,91.13
2022-10-30T17:56:47.852Z,91.72
2022-10-30T17:59:14.694Z,91.75
2022-10-30T18:01:41.483Z,92.72
2022-10-30T18:04:19.724Z,91.84
2022-10-30T18:06:49.089Z,91.93
2022-10-30T18:09:15.815Z,92.14
2022-10-30T18:11:42.250Z,92.66
2022-10-30T18:14:12.128Z,93.12
2022-10-30T18:16:39.061Z,93.26
2022-10-30T18:19:10.604Z,92.63
2022-10-30T18:21:37.454Z,94.83
2022-10-30T18:24:15.292Z,94.72
2022-10-30T18:26:41.942Z,93.65
2022-10-30T18:29:09.385Z,94.46
2022-10-30T18:31:35.873Z,94.20
2022-10-30T18:34:02.352Z,94.72
2022-10-30T18:36:28.753Z,95.53
2022-10-30T18:38:56.129Z,94.19
2022-10-30T18:41:33.632Z,93.47
2022-10-30T18:44:00.057Z,92.75
2022-10-30T18:46:33.368Z,93.94
2022-10-30T18:49:00.185Z,95.05
2022-10-30T18:51:28.114Z,95.14
2022-10-30T18:53:56.959Z,95.79
2022-10-30T18:56:28.652Z,97.60
2022-10-30T18:59:00.758Z,97.38
2022-10-30T19:01:30.180Z,96.90
2022-10-30T19:03:56.765Z,96.46
2022-10-30T19:06:24.461Z,95.28
2022-10-30T19:08:50.961Z,95.75
2022-10-30T19:11:24.248Z,95.80
2022-10-30T19:13:52.541Z,96.34
2022-10-30T19:16:19.601Z,95.59
2022-10-30T19:18:46.879Z,96.28
2022-10-30T19:21:19.179Z,95.69
2022-10-30T19:23:46.550Z,95.15
2022-10-30T19:26:17.071Z,96.39
2022-10-30T19:28:45.460Z,95.38
2022-10-30T19:31:17.178Z,95.79
2022-10-30T19:33:43.945Z,96.26
2022-10-30T19:36:26.908Z,96.05
2022-10-30T19:38:53.927Z,96.97
2022-10-30T19:41:20.354Z,97.21
2022-10-30T19:43:48.822Z,96.95
2022-10-30T19:46:15.396Z,96.51
2022-10-30T19:48:58.545Z,96.92
2022-10-30T19:51:25.911Z,96.96
2022-10-30T19:53:53.685Z,97.51
2022-10-30T19:56:21.303Z,96.92
2022-10-30T19:58:48.197Z,97.48
2022-10-30T20:01:14.733Z,97.11
2022-10-30T20:03:42.283Z,97.83
2022-10-30T20:06:12.502Z,97.07
2022-10-30T20:08:41.404Z,97.24
2022-10-30T20:11:08.338Z,96.21
2022-10-30T20:13:34.984Z,96.95
2022-10-30T20:16:04.763Z,96.64
2022-10-30T20:18:33.645Z,96.64
2022-10-30T20:21:03.074Z,95.72
2022-10-30T20:23:30.452Z,95.82
2022-10-30T20:26:06.813Z,95.54
2022-10-30T20:28:39.634Z,96.13
2022-10-30T20:31:06.975Z,95.26
2022-10-30T20:33:34.269Z,95.19
2022-10-30T20:36:00.821Z,95.02
2022-10-30T20:38:35.669Z,95.90
2022-10-30T20:41:04.051Z,95.38
2022-10-30T20:43:38.686Z,96.52
2022-10-30T20:46:07.438Z,95.73
2022-10-30T20:48:33.805Z,95.52
2022-10-30T20:51:01.466Z,95.18
2022-10-30T20:53:28.553Z,95.25
2022-10-30T20:55:55.565Z,96.04
2022-10-30T20:58:26.193Z,97.12
2022-10-30T21:00:58.039Z,97.71
2022-10-30T21:03:26.132Z,97.82
2022-10-30T21:05:58.163Z,100.00
2022-10-30T21:08:26.645Z,100.00
2022-10-30T21:10:53.373Z,100.00
2022-10-30T21:13:19.735Z,100.00
2022-10-30T21:15:46.116Z,99.37
2022-10-30T21:18:13.072Z,99.87
2022-10-30T21:20:40.908Z,100.00
2022-10-30T21:23:07.431Z,99.85
2022-10-30T21:25:35.665Z,99.46
2022-10-30T21:28:02.296Z,100.00
2022-10-30T21:30:29.224Z,100.00
2022-10-30T21:32:55.681Z,100.00
2022-10-30T21:35:22.108Z,99.78
2022-10-30T21:37:48.571Z,100.00
2022-10-30T21:40:15.231Z,98.38
2022-10-30T21:42:41.634Z,98.21
2022-10-30T21:45:08.786Z,99.26
2022-10-30T21:47:35.203Z,98.85
2022-10-30T21:50:04.801Z,99.33
2022-10-30T21:52:33.480Z,100.00
2022-10-30T21:54:59.857Z,99.45
2022-10-30T21:57:26.230Z,100.00
2022-10-30T21:59:52.587Z,99.91
2022-10-30T22:02:19.036Z,100.00
2022-10-30T22:04:47.679Z,97.42
2022-10-30T22:07:17.379Z,98.86
2022-10-30T22:09:43.783Z,99.76
2022-10-30T22:12:10.230Z,99.37
2022-10-30T22:14:36.612Z,99.78
2022-10-30T22:17:03.044Z,100.00
2022-10-30T22:19:29.415Z,100.00
2022-10-30T22:21:55.785Z,99.29
2022-10-30T22:24:22.145Z,99.17
2022-10-30T22:26:48.510Z,98.43
2022-10-30T22:29:15.107Z,97.37
2022-10-30T22:31:41.467Z,98.09
2022-10-30T22:34:07.923Z,97.54
2022-10-30T22:36:34.385Z,98.24
2022-10-30T22:39:03.602Z,98.96
2022-10-30T22:41:34.521Z,99.20
2022-10-30T22:44:08.095Z,99.05
2022-10-30T22:46:35.566Z,99.28
2022-10-30T22:49:02.144Z,98.32
2022-10-30T22:51:31.905Z,99.37
2022-10-30T22:54:00.432Z,99.64
2022-10-30T22:56:32.790Z,99.57
2022-10-30T22:59:05.458Z,99.83
2022-10-30T23:01:34.851Z,100.00
2022-10-30T23:04:02.758Z,100.00
2022-10-30T23:06:31.227Z,100.00
2022-10-30T23:08:59.513Z,100.00
2022-10-30T23:11:27.160Z,99.74
2022-10-30T23:13:56.661Z,99.95
2022-10-30T23:16:25.765Z,99.20
2022-10-30T23:18:55.081Z,99.66
2022-10-30T23:21:23.549Z,100.00
2022-10-30T23:23:50.468Z,100.00
2022-10-30T23:26:20.444Z,100.00
2022-10-30T23:28:48.182Z,100.00
2022-10-30T23:31:19.495Z,100.00
2022-10-30T23:33:48.530Z,100.00
2022-10-30T23:36:16.140Z,100.00
2022-10-30T23:38:42.549Z,100.00
2022-10-30T23:41:09.120Z,100.00
2022-10-30T23:43:35.553Z,100.00
2022-10-30T23:46:02.263Z,100.00
2022-10-30T23:48:28.628Z,99.99
2022-10-30T23:50:55.009Z,99.97
2022-10-30T23:53:21.398Z,99.66
2022-10-30T23:55:55.220Z,100.00
2022-10-30T23:58:21.782Z,100.00
